sensor_id;sensor_type;location;lat;lon;timestamp;pressure;altitude;pressure_sealevel;temperature;humidity
6413;BME280;3239;48.714;9.472;2022-12-26T00:01:47;98389.22;;;9.83;100.00
6413;BME280;3239;48.714;9.472;2022-12-26T00:04:15;98379.75;;;9.84;100.00
6413;BME280;3239;48.714;9.472;2022-12-26T00:06:42;98388.69;;;9.84;100.00
6413;BME280;3239;48.714;9.472;2022-12-26T00:09:08;98392.63;;;9.89;100.00
6413;BME280;3239;48.714;9.472;2022-12-26T00:11:34;98385.22;;;9.84;100.00
6413;BME280;3239;48.714;9.472;2022-12-26T00:14:11;98387.94;;;9.84;100.00
6413;BME280;3239;48.714;9.472;2022-12-26T00:16:40;98388.16;;;9.86;100.00
6413;BME280;3239;48.714;9.472;2022-12-26T00:19:06;98399.13;;;9.86;100.00
6413;BME280;3239;48.714;9.472;2022-12-26T00:21:32;98390.47;;;9.82;100.00
6413;BME280;3239;48.714;9.472;2022-12-26T00:23:59;98395.94;;;9.82;100.00
6413;BME280;3239;48.714;9.472;2022-12-26T00:26:28;98393.72;;;9.80;100.00
6413;BME280;3239;48.714;9.472;2022-12-26T00:28:55;98390.47;;;9.82;100.00
6413;BME280;3239;48.714;9.472;2022-12-26T00:31:26;98397.41;;;9.83;100.00
6413;BME280;3239;48.714;9.472;2022-12-26T00:33:52;98395.75;;;9.98;100.00
6413;BME280;3239;48.714;9.472;2022-12-26T00:36:21;98392.13;;;9.90;100.00
6413;BME280;3239;48.714;9.472;2022-12-26T00:38:48;98389.88;;;9.89;100.00
6413;BME280;3239;48.714;9.472;2022-12-26T00:41:16;98385.97;;;9.84;100.00
6413;BME280;3239;48.714;9.472;2022-12-26T00:43:43;98381.59;;;9.46;100.00
6413;BME280;3239;48.714;9.472;2022-12-26T00:46:09;98405.00;;;9.42;100.00
6413;BME280;3239;48.714;9.472;2022-12-26T00:48:35;98418.91;;;9.44;100.00
6413;BME280;3239;48.714;9.472;2022-12-26T00:51:00;98420.13;;;9.48;100.00
6413;BME280;3239;48.714;9.472;2022-12-26T00:53:27;98413.88;;;9.53;100.00
6413;BME280;3239;48.714;9.472;2022-12-26T00:55:53;98414.78;;;9.61;100.00
6413;BME280;3239;48.714;9.472;2022-12-26T00:58:20;98404.34;;;9.60;100.00
6413;BME280;3239;48.714;9.472;2022-12-26T01:00:46;98405.09;;;9.31;100.00
6413;BME280;3239;48.714;9.472;2022-12-26T01:03:13;98401.97;;;9.16;100.00
6413;BME280;3239;48.714;9.472;2022-12-26T01:05:47;98411.88;;;8.89;100.00
6413;BME280;3239;48.714;9.472;2022-12-26T01:08:16;98422.25;;;8.96;100.00
6413;BME280;3239;48.714;9.472;2022-12-26T01:10:46;98437.31;;;9.08;100.00
6413;BME280;3239;48.714;9.472;2022-12-26T01:13:12;98432.28;;;8.83;100.00
6413;BME280;3239;48.714;9.472;2022-12-26T01:15:38;98441.84;;;9.00;100.00
6413;BME280;3239;48.714;9.472;2022-12-26T01:18:04;98439.00;;;9.17;100.00
6413;BME280;3239;48.714;9.472;2022-12-26T01:20:31;98436.19;;;9.28;100.00
6413;BME280;3239;48.714;9.472;2022-12-26T01:22:57;98442.81;;;9.38;100.00
6413;BME280;3239;48.714;9.472;2022-12-26T01:25:23;98437.88;;;9.01;100.00
6413;BME280;3239;48.714;9.472;2022-12-26T01:27:48;98434.16;;;8.53;100.00
6413;BME280;3239;48.714;9.472;2022-12-26T01:30:17;98461.19;;;8.56;100.00
6413;BME280;3239;48.714;9.472;2022-12-26T01:32:42;98466.47;;;8.38;100.00
6413;BME280;3239;48.714;9.472;2022-12-26T01:35:08;98476.94;;;8.12;100.00
6413;BME280;3239;48.714;9.472;2022-12-26T01:37:34;98485.88;;;8.07;100.00
6413;BME280;3239;48.714;9.472;2022-12-26T01:40:01;98502.50;;;8.03;100.00
6413;BME280;3239;48.714;9.472;2022-12-26T01:42:37;98504.97;;;8.07;100.00
6413;BME280;3239;48.714;9.472;2022-12-26T01:45:28;98517.66;;;7.88;100.00
6413;BME280;3239;48.714;9.472;2022-12-26T01:48:21;98537.25;;;8.03;100.00
6413;BME280;3239;48.714;9.472;2022-12-26T01:51:00;98543.47;;;7.98;100.00
6413;BME280;3239;48.714;9.472;2022-12-26T01:53:38;98553.38;;;7.90;100.00
6413;BME280;3239;48.714;9.472;2022-12-26T01:56:15;98553.38;;;7.73;100.00
6413;BME280;3239;48.714;9.472;2022-12-26T01:58:48;98566.75;;;7.77;100.00
6413;BME280;3239;48.714;9.472;2022-12-26T02:01:15;98569.75;;;7.73;100.00
6413;BME280;3239;48.714;9.472;2022-12-26T02:03:44;98576.41;;;7.83;100.00
6413;BME280;3239;48.714;9.472;2022-12-26T02:06:29;98570.69;;;7.65;100.00
6413;BME280;3239;48.714;9.472;2022-12-26T02:08:55;98578.63;;;7.52;100.00
6413;BME280;3239;48.714;9.472;2022-12-26T02:11:38;98585.81;;;7.60;100.00
6413;BME280;3239;48.714;9.472;2022-12-26T02:14:07;98589.31;;;7.72;100.00
6413;BME280;3239;48.714;9.472;2022-12-26T02:16:36;98600.69;;;7.65;100.00
6413;BME280;3239;48.714;9.472;2022-12-26T02:19:03;98587.56;;;7.69;100.00
6413;BME280;3239;48.714;9.472;2022-12-26T02:24:16;98599.00;;;7.73;100.00
6413;BME280;3239;48.714;9.472;2022-12-26T02:28:06;98597.75;;;7.68;100.00
6413;BME280;3239;48.714;9.472;2022-12-26T02:33:21;98585.59;;;7.58;100.00
6413;BME280;3239;48.714;9.472;2022-12-26T02:38:59;98578.59;;;7.30;100.00
6413;BME280;3239;48.714;9.472;2022-12-26T02:44:45;98608.63;;;7.52;100.00
6413;BME280;3239;48.714;9.472;2022-12-26T02:51:20;98623.44;;;7.29;100.00
6413;BME280;3239;48.714;9.472;2022-12-26T02:57:25;98615.28;;;7.45;100.00
6413;BME280;3239;48.714;9.472;2022-12-26T03:00:15;98627.19;;;7.42;100.00
6413;BME280;3239;48.714;9.472;2022-12-26T03:03:16;98637.06;;;7.34;100.00
6413;BME280;3239;48.714;9.472;2022-12-26T03:06:11;98643.78;;;7.44;100.00
6413;BME280;3239;48.714;9.472;2022-12-26T03:09:02;98647.75;;;7.49;100.00
6413;BME280;3239;48.714;9.472;2022-12-26T03:11:53;98633.88;;;7.47;100.00
6413;BME280;3239;48.714;9.472;2022-12-26T03:14:55;98640.81;;;7.48;100.00
6413;BME280;3239;48.714;9.472;2022-12-26T03:17:42;98643.06;;;7.49;100.00
6413;BME280;3239;48.714;9.472;2022-12-26T03:20:29;98652.50;;;7.59;100.00
6413;BME280;3239;48.714;9.472;2022-12-26T03:23:06;98651.75;;;7.53;100.00
6413;BME280;3239;48.714;9.472;2022-12-26T03:25:50;98651.50;;;7.57;100.00
6413;BME280;3239;48.714;9.472;2022-12-26T03:28:37;98648.81;;;7.68;100.00
6413;BME280;3239;48.714;9.472;2022-12-26T03:31:10;98662.75;;;7.92;100.00
6413;BME280;3239;48.714;9.472;2022-12-26T03:33:39;98648.50;;;7.49;100.00
6413;BME280;3239;48.714;9.472;2022-12-26T03:46:00;98627.47;;;7.61;100.00
6413;BME280;3239;48.714;9.472;2022-12-26T03:52:13;98624.00;;;7.55;100.00
6413;BME280;3239;48.714;9.472;2022-12-26T03:58:21;98636.97;;;8.04;100.00
6413;BME280;3239;48.714;9.472;2022-12-26T04:01:26;98643.88;;;7.88;100.00
6413;BME280;3239;48.714;9.472;2022-12-26T04:04:13;98637.22;;;7.89;100.00
6413;BME280;3239;48.714;9.472;2022-12-26T04:10:02;98640.69;;;7.95;100.00
6413;BME280;3239;48.714;9.472;2022-12-26T04:12:48;98626.03;;;7.98;100.00
6413;BME280;3239;48.714;9.472;2022-12-26T04:15:57;98626.53;;;7.80;100.00
6413;BME280;3239;48.714;9.472;2022-12-26T04:21:50;98637.69;;;8.15;100.00
6413;BME280;3239;48.714;9.472;2022-12-26T04:24:43;98636.25;;;8.25;100.00
6413;BME280;3239;48.714;9.472;2022-12-26T04:27:31;98630.50;;;8.01;100.00
6413;BME280;3239;48.714;9.472;2022-12-26T04:30:16;98630.50;;;7.96;100.00
6413;BME280;3239;48.714;9.472;2022-12-26T04:33:30;98628.53;;;7.96;100.00
6413;BME280;3239;48.714;9.472;2022-12-26T04:36:39;98637.94;;;8.12;100.00
6413;BME280;3239;48.714;9.472;2022-12-26T04:39:28;98643.16;;;8.10;100.00
6413;BME280;3239;48.714;9.472;2022-12-26T04:42:16;98629.00;;;7.84;100.00
6413;BME280;3239;48.714;9.472;2022-12-26T04:45:04;98636.44;;;7.89;100.00
6413;BME280;3239;48.714;9.472;2022-12-26T04:47:31;98638.19;;;7.92;100.00
6413;BME280;3239;48.714;9.472;2022-12-26T04:49:57;98641.66;;;7.92;100.00
6413;BME280;3239;48.714;9.472;2022-12-26T04:52:40;98636.97;;;8.04;100.00
6413;BME280;3239;48.714;9.472;2022-12-26T04:55:31;98642.91;;;7.91;100.00
6413;BME280;3239;48.714;9.472;2022-12-26T04:57:57;98651.84;;;7.97;100.00
6413;BME280;3239;48.714;9.472;2022-12-26T05:00:25;98642.91;;;7.97;100.00
6413;BME280;3239;48.714;9.472;2022-12-26T05:02:56;98636.47;;;7.94;100.00
6413;BME280;3239;48.714;9.472;2022-12-26T05:05:43;98651.34;;;8.10;100.00
6413;BME280;3239;48.714;9.472;2022-12-26T05:08:41;98647.63;;;8.07;100.00
6413;BME280;3239;48.714;9.472;2022-12-26T05:11:27;98656.06;;;8.15;100.00
6413;BME280;3239;48.714;9.472;2022-12-26T05:13:55;98666.50;;;8.05;100.00
6413;BME280;3239;48.714;9.472;2022-12-26T05:16:22;98662.53;;;8.06;100.00
6413;BME280;3239;48.714;9.472;2022-12-26T05:19:10;98659.78;;;8.12;100.00
6413;BME280;3239;48.714;9.472;2022-12-26T05:21:55;98653.31;;;7.87;100.00
6413;BME280;3239;48.714;9.472;2022-12-26T05:24:40;98650.84;;;7.89;100.00
6413;BME280;3239;48.714;9.472;2022-12-26T05:27:37;98652.31;;;7.79;100.00
6413;BME280;3239;48.714;9.472;2022-12-26T05:30:22;98646.59;;;7.83;100.00
6413;BME280;3239;48.714;9.472;2022-12-26T05:32:48;98644.41;;;7.98;100.00
6413;BME280;3239;48.714;9.472;2022-12-26T05:35:34;98642.94;;;8.08;100.00
6413;BME280;3239;48.714;9.472;2022-12-26T05:38:01;98640.69;;;8.06;100.00
6413;BME280;3239;48.714;9.472;2022-12-26T05:40:27;98630.25;;;8.05;100.00
6413;BME280;3239;48.714;9.472;2022-12-26T05:42:52;98631.00;;;8.11;100.00
6413;BME280;3239;48.714;9.472;2022-12-26T05:45:18;98635.22;;;8.12;100.00
6413;BME280;3239;48.714;9.472;2022-12-26T05:47:44;98639.44;;;8.02;100.00
6413;BME280;3239;48.714;9.472;2022-12-26T05:50:09;98640.16;;;7.97;100.00
6413;BME280;3239;48.714;9.472;2022-12-26T05:52:35;98630.03;;;8.03;100.00
6413;BME280;3239;48.714;9.472;2022-12-26T05:55:01;98633.47;;;8.03;100.00
6413;BME280;3239;48.714;9.472;2022-12-26T05:57:27;98635.22;;;7.84;100.00
6413;BME280;3239;48.714;9.472;2022-12-26T05:59:52;98635.22;;;7.84;100.00
6413;BME280;3239;48.714;9.472;2022-12-26T06:02:18;98635.22;;;7.84;100.00
6413;BME280;3239;48.714;9.472;2022-12-26T06:04:44;98639.88;;;7.67;100.00
6413;BME280;3239;48.714;9.472;2022-12-26T06:07:09;98639.91;;;7.73;100.00
6413;BME280;3239;48.714;9.472;2022-12-26T06:09:35;98663.72;;;7.78;100.00
6413;BME280;3239;48.714;9.472;2022-12-26T06:12:01;98676.13;;;7.90;100.00
6413;BME280;3239;48.714;9.472;2022-12-26T06:14:27;98677.88;;;7.93;100.00
6413;BME280;3239;48.714;9.472;2022-12-26T06:16:52;98676.88;;;7.90;100.00
6413;BME280;3239;48.714;9.472;2022-12-26T06:19:18;98678.38;;;7.97;100.00
6413;BME280;3239;48.714;9.472;2022-12-26T06:21:44;98673.91;;;7.94;100.00
6413;BME280;3239;48.714;9.472;2022-12-26T06:24:09;98671.94;;;8.00;100.00
6413;BME280;3239;48.714;9.472;2022-12-26T06:26:35;98664.75;;;8.08;100.00
6413;BME280;3239;48.714;9.472;2022-12-26T06:29:02;98672.69;;;8.17;100.00
6413;BME280;3239;48.714;9.472;2022-12-26T06:31:28;98681.41;;;8.21;100.00
6413;BME280;3239;48.714;9.472;2022-12-26T06:33:55;98685.34;;;8.14;100.00
6413;BME280;3239;48.714;9.472;2022-12-26T06:36:25;98692.06;;;8.19;100.00
6413;BME280;3239;48.714;9.472;2022-12-26T06:38:52;98693.81;;;8.33;100.00
6413;BME280;3239;48.714;9.472;2022-12-26T06:41:21;98695.28;;;8.23;100.00
6413;BME280;3239;48.714;9.472;2022-12-26T06:43:47;98693.28;;;8.18;100.00
6413;BME280;3239;48.714;9.472;2022-12-26T06:46:18;98692.31;;;8.21;100.00
6413;BME280;3239;48.714;9.472;2022-12-26T06:48:44;98688.88;;;8.31;100.00
6413;BME280;3239;48.714;9.472;2022-12-26T06:51:13;98688.59;;;8.40;100.00
6413;BME280;3239;48.714;9.472;2022-12-26T06:53:40;98690.59;;;8.62;100.00
6413;BME280;3239;48.714;9.472;2022-12-26T06:56:09;98675.94;;;8.54;100.00
6413;BME280;3239;48.714;9.472;2022-12-26T06:58:36;98674.97;;;8.57;100.00
6413;BME280;3239;48.714;9.472;2022-12-26T07:01:11;98675.69;;;8.74;100.00
6413;BME280;3239;48.714;9.472;2022-12-26T07:03:38;98665.44;;;9.02;100.00
6413;BME280;3239;48.714;9.472;2022-12-26T07:06:34;98642.53;;;9.21;100.00
6413;BME280;3239;48.714;9.472;2022-12-26T07:09:13;98636.75;;;9.30;100.00
6413;BME280;3239;48.714;9.472;2022-12-26T07:11:42;98609.59;;;9.43;100.00
6413;BME280;3239;48.714;9.472;2022-12-26T07:14:09;98587.66;;;9.54;100.00
6413;BME280;3239;48.714;9.472;2022-12-26T07:16:38;98576.94;;;9.62;100.00
6413;BME280;3239;48.714;9.472;2022-12-26T07:19:05;98554.47;;;9.69;100.00
6413;BME280;3239;48.714;9.472;2022-12-26T07:21:31;98532.03;;;9.76;100.00
6413;BME280;3239;48.714;9.472;2022-12-26T07:23:57;98525.69;;;9.27;100.00
6413;BME280;3239;48.714;9.472;2022-12-26T07:26:24;98533.31;;;9.40;100.00
6413;BME280;3239;48.714;9.472;2022-12-26T07:28:55;98520.03;;;9.14;100.00
6413;BME280;3239;48.714;9.472;2022-12-26T07:31:22;98536.78;;;9.40;100.00
6413;BME280;3239;48.714;9.472;2022-12-26T07:33:55;98527.84;;;9.40;100.00
6413;BME280;3239;48.714;9.472;2022-12-26T07:36:21;98517.97;;;9.26;100.00
6413;BME280;3239;48.714;9.472;2022-12-26T07:38:49;98527.78;;;8.99;100.00
6413;BME280;3239;48.714;9.472;2022-12-26T07:41:15;98526.53;;;9.06;100.00
6413;BME280;3239;48.714;9.472;2022-12-26T07:43:59;98539.38;;;9.22;100.00
6413;BME280;3239;48.714;9.472;2022-12-26T07:46:25;98537.03;;;9.37;100.00
6413;BME280;3239;48.714;9.472;2022-12-26T07:48:51;98532.47;;;9.50;100.00
6413;BME280;3239;48.714;9.472;2022-12-26T07:51:16;98521.44;;;9.67;100.00
6413;BME280;3239;48.714;9.472;2022-12-26T07:53:42;98522.41;;;9.69;100.00
6413;BME280;3239;48.714;9.472;2022-12-26T07:56:08;98504.47;;;9.74;100.00
6413;BME280;3239;48.714;9.472;2022-12-26T07:58:34;98505.31;;;9.58;100.00
6413;BME280;3239;48.714;9.472;2022-12-26T08:01:02;98509.72;;;9.31;100.00
6413;BME280;3239;48.714;9.472;2022-12-26T08:03:27;98513.34;;;9.50;100.00
6413;BME280;3239;48.714;9.472;2022-12-26T08:05:53;98522.75;;;9.55;100.00
6413;BME280;3239;48.714;9.472;2022-12-26T08:08:19;98521.09;;;9.00;100.00
6413;BME280;3239;48.714;9.472;2022-12-26T08:10:45;98530.94;;;9.20;100.00
6413;BME280;3239;48.714;9.472;2022-12-26T08:13:11;98544.72;;;8.92;100.00
6413;BME280;3239;48.714;9.472;2022-12-26T08:15:38;98556.91;;;8.86;100.00
6413;BME280;3239;48.714;9.472;2022-12-26T08:18:04;98563.09;;;8.97;100.00
6413;BME280;3239;48.714;9.472;2022-12-26T08:20:30;98574.25;;;9.05;100.00
6413;BME280;3239;48.714;9.472;2022-12-26T08:22:56;98574.97;;;9.11;100.00
6413;BME280;3239;48.714;9.472;2022-12-26T08:25:22;98579.75;;;8.88;100.00
6413;BME280;3239;48.714;9.472;2022-12-26T08:27:47;98594.16;;;8.94;100.00
6413;BME280;3239;48.714;9.472;2022-12-26T08:30:13;98608.06;;;8.96;100.00
6413;BME280;3239;48.714;9.472;2022-12-26T08:32:39;98607.09;;;8.94;100.00
6413;BME280;3239;48.714;9.472;2022-12-26T08:35:05;98633.63;;;9.10;100.00
6413;BME280;3239;48.714;9.472;2022-12-26T08:37:31;98640.53;;;9.22;100.00
6413;BME280;3239;48.714;9.472;2022-12-26T08:39:56;98645.22;;;9.32;100.00
6413;BME280;3239;48.714;9.472;2022-12-26T08:42:22;98658.34;;;9.39;100.00
6413;BME280;3239;48.714;9.472;2022-12-26T08:44:48;98667.75;;;9.44;100.00
6413;BME280;3239;48.714;9.472;2022-12-26T08:47:14;98695.84;;;9.50;100.00
6413;BME280;3239;48.714;9.472;2022-12-26T08:49:40;98707.03;;;9.52;100.00
6413;BME280;3239;48.714;9.472;2022-12-26T08:52:06;98714.97;;;9.50;100.00
6413;BME280;3239;48.714;9.472;2022-12-26T08:54:33;98714.47;;;9.57;100.00
6413;BME280;3239;48.714;9.472;2022-12-26T08:56:58;98715.97;;;9.58;100.00
6413;BME280;3239;48.714;9.472;2022-12-26T08:59:24;98717.16;;;9.62;100.00
6413;BME280;3239;48.714;9.472;2022-12-26T09:01:50;98721.88;;;9.67;100.00
6413;BME280;3239;48.714;9.472;2022-12-26T09:04:16;98722.41;;;9.66;100.00
6413;BME280;3239;48.714;9.472;2022-12-26T09:06:42;98728.88;;;9.63;100.00
6413;BME280;3239;48.714;9.472;2022-12-26T09:09:10;98740.31;;;9.61;100.00
6413;BME280;3239;48.714;9.472;2022-12-26T09:11:39;98743.50;;;9.71;100.00
6413;BME280;3239;48.714;9.472;2022-12-26T09:14:05;98744.25;;;9.71;100.00
6413;BME280;3239;48.714;9.472;2022-12-26T09:16:35;98748.97;;;9.71;100.00
6413;BME280;3239;48.714;9.472;2022-12-26T09:19:04;98742.75;;;9.70;100.00
6413;BME280;3239;48.714;9.472;2022-12-26T09:21:31;98748.97;;;9.71;100.00
6413;BME280;3239;48.714;9.472;2022-12-26T09:24:08;98749.72;;;9.71;100.00
6413;BME280;3239;48.714;9.472;2022-12-26T09:26:37;98765.88;;;9.75;100.00
6413;BME280;3239;48.714;9.472;2022-12-26T09:29:03;98762.63;;;9.76;100.00
6413;BME280;3239;48.714;9.472;2022-12-26T09:31:33;98772.81;;;9.76;100.00
6413;BME280;3239;48.714;9.472;2022-12-26T09:34:05;98770.34;;;9.72;100.00
6413;BME280;3239;48.714;9.472;2022-12-26T09:36:36;98763.63;;;9.73;100.00
6413;BME280;3239;48.714;9.472;2022-12-26T09:39:03;98769.38;;;9.75;100.00
6413;BME280;3239;48.714;9.472;2022-12-26T09:45:16;98791.00;;;9.73;100.00
6413;BME280;3239;48.714;9.472;2022-12-26T09:48:01;98807.94;;;9.72;100.00
6413;BME280;3239;48.714;9.472;2022-12-26T09:50:32;98836.06;;;9.67;100.00
6413;BME280;3239;48.714;9.472;2022-12-26T09:53:32;98829.59;;;9.64;100.00
6413;BME280;3239;48.714;9.472;2022-12-26T09:56:05;98836.06;;;9.67;100.00
6413;BME280;3239;48.714;9.472;2022-12-26T09:58:44;98842.78;;;9.66;100.00
6413;BME280;3239;48.714;9.472;2022-12-26T10:01:27;98854.44;;;9.66;100.00
6413;BME280;3239;48.714;9.472;2022-12-26T10:03:56;98854.69;;;9.68;100.00
6413;BME280;3239;48.714;9.472;2022-12-26T10:06:39;98862.88;;;9.68;100.00
6413;BME280;3239;48.714;9.472;2022-12-26T10:09:36;98862.69;;;9.50;100.00
6413;BME280;3239;48.714;9.472;2022-12-26T10:12:21;98876.13;;;9.48;100.00
6413;BME280;3239;48.714;9.472;2022-12-26T10:15:05;98891.28;;;9.49;100.00
6413;BME280;3239;48.714;9.472;2022-12-26T10:17:51;98898.25;;;9.55;100.00
6413;BME280;3239;48.714;9.472;2022-12-26T10:26:16;98913.41;;;9.56;100.00
6413;BME280;3239;48.714;9.472;2022-12-26T10:37:43;98967.88;;;9.54;100.00
6413;BME280;3239;48.714;9.472;2022-12-26T10:40:29;98975.84;;;9.58;100.00
6413;BME280;3239;48.714;9.472;2022-12-26T10:43:26;98988.00;;;9.62;100.00
6413;BME280;3239;48.714;9.472;2022-12-26T10:48:37;98997.22;;;9.65;100.00
6413;BME280;3239;48.714;9.472;2022-12-26T10:51:03;99012.63;;;9.62;100.00
6413;BME280;3239;48.714;9.472;2022-12-26T10:53:29;99019.63;;;9.63;100.00
6413;BME280;3239;48.714;9.472;2022-12-26T10:55:55;99030.31;;;9.61;100.00
6413;BME280;3239;48.714;9.472;2022-12-26T10:58:34;99041.22;;;9.50;100.00
6413;BME280;3239;48.714;9.472;2022-12-26T11:01:31;99052.91;;;9.40;100.00
6413;BME280;3239;48.714;9.472;2022-12-26T11:04:05;99065.34;;;9.41;100.00
6413;BME280;3239;48.714;9.472;2022-12-26T11:06:36;99073.31;;;9.44;100.00
6413;BME280;3239;48.714;9.472;2022-12-26T11:09:03;99077.03;;;9.47;100.00
6413;BME280;3239;48.714;9.472;2022-12-26T11:11:33;99079.75;;;9.36;100.00
6413;BME280;3239;48.714;9.472;2022-12-26T11:14:41;99089.69;;;9.33;100.00
6413;BME280;3239;48.714;9.472;2022-12-26T11:17:39;99090.69;;;9.41;100.00
6413;BME280;3239;48.714;9.472;2022-12-26T11:22:45;99102.91;;;9.51;100.00
6413;BME280;3239;48.714;9.472;2022-12-26T11:25:23;99104.91;;;9.56;100.00
6413;BME280;3239;48.714;9.472;2022-12-26T11:27:54;99109.16;;;9.63;100.00
6413;BME280;3239;48.714;9.472;2022-12-26T11:33:24;99081.31;;;9.75;100.00
6413;BME280;3239;48.714;9.472;2022-12-26T11:36:02;99064.41;;;9.77;100.00
6413;BME280;3239;48.714;9.472;2022-12-26T11:38:31;99060.16;;;9.81;100.00
6413;BME280;3239;48.714;9.472;2022-12-26T11:49:28;99095.50;;;9.96;100.00
6413;BME280;3239;48.714;9.472;2022-12-26T11:51:57;99103.22;;;9.97;100.00
6413;BME280;3239;48.714;9.472;2022-12-26T11:57:27;99098.50;;;10.03;100.00
6413;BME280;3239;48.714;9.472;2022-12-26T11:59:55;99105.22;;;10.02;100.00
6413;BME280;3239;48.714;9.472;2022-12-26T12:02:40;99104.75;;;10.04;100.00
6413;BME280;3239;48.714;9.472;2022-12-26T12:05:16;99089.03;;;9.99;100.00
6413;BME280;3239;48.714;9.472;2022-12-26T12:17:03;99066.16;;;10.13;100.00
6413;BME280;3239;48.714;9.472;2022-12-26T12:20:09;99051.72;;;10.18;100.00
6413;BME280;3239;48.714;9.472;2022-12-26T12:26:06;99096.31;;;10.24;100.00
6413;BME280;3239;48.714;9.472;2022-12-26T12:46:29;99081.34;;;10.25;100.00
6413;BME280;3239;48.714;9.472;2022-12-26T12:57:53;99100.50;;;10.19;100.00
6413;BME280;3239;48.714;9.472;2022-12-26T13:00:44;99106.50;;;10.23;100.00
6413;BME280;3239;48.714;9.472;2022-12-26T13:03:38;99103.50;;;10.27;100.00
6413;BME280;3239;48.714;9.472;2022-12-26T13:06:34;99093.78;;;10.26;100.00
6413;BME280;3239;48.714;9.472;2022-12-26T13:09:21;99090.81;;;10.24;100.00
6413;BME280;3239;48.714;9.472;2022-12-26T13:12:01;99089.06;;;10.21;100.00
6413;BME280;3239;48.714;9.472;2022-12-26T13:14:42;99089.81;;;10.21;100.00
6413;BME280;3239;48.714;9.472;2022-12-26T13:17:18;99094.28;;;10.24;100.00
6413;BME280;3239;48.714;9.472;2022-12-26T13:20:18;99088.56;;;10.17;100.00
6413;BME280;3239;48.714;9.472;2022-12-26T13:22:52;99066.41;;;10.15;100.00
6413;BME280;3239;48.714;9.472;2022-12-26T13:25:43;99072.13;;;10.17;100.00
6413;BME280;3239;48.714;9.472;2022-12-26T13:28:21;99070.88;;;10.18;100.00
6413;BME280;3239;48.714;9.472;2022-12-26T13:30:55;99075.13;;;10.13;100.00
6413;BME280;3239;48.714;9.472;2022-12-26T13:33:21;99075.38;;;10.10;100.00
6413;BME280;3239;48.714;9.472;2022-12-26T13:35:59;99050.25;;;10.11;100.00
6413;BME280;3239;48.714;9.472;2022-12-26T13:41:24;99015.91;;;10.05;100.00
6413;BME280;3239;48.714;9.472;2022-12-26T13:49:38;99001.47;;;10.10;100.00
6413;BME280;3239;48.714;9.472;2022-12-26T13:57:40;99000.69;;;10.09;100.00
6413;BME280;3239;48.714;9.472;2022-12-26T14:00:21;99006.94;;;10.04;100.00
6413;BME280;3239;48.714;9.472;2022-12-26T14:04:30;98995.97;;;10.04;100.00
6413;BME280;3239;48.714;9.472;2022-12-26T14:07:24;98981.53;;;10.09;100.00
6413;BME280;3239;48.714;9.472;2022-12-26T14:21:54;98952.94;;;10.05;100.00
6413;BME280;3239;48.714;9.472;2022-12-26T14:27:24;98936.75;;;10.01;100.00
6413;BME280;3239;48.714;9.472;2022-12-26T14:34:08;98935.75;;;9.99;100.00
6413;BME280;3239;48.714;9.472;2022-12-26T14:37:30;98922.56;;;10.03;100.00
6413;BME280;3239;48.714;9.472;2022-12-26T14:40:34;98906.63;;;10.01;100.00
6413;BME280;3239;48.714;9.472;2022-12-26T14:43:01;98913.34;;;10.00;100.00
6413;BME280;3239;48.714;9.472;2022-12-26T14:50:48;98910.13;;;9.96;100.00
6413;BME280;3239;48.714;9.472;2022-12-26T15:07:03;98897.69;;;9.90;100.00
6413;BME280;3239;48.714;9.472;2022-12-26T15:15:32;98899.94;;;9.86;100.00
6413;BME280;3239;48.714;9.472;2022-12-26T15:21:42;98887.00;;;9.81;100.00
6413;BME280;3239;48.714;9.472;2022-12-26T15:27:34;98885.50;;;9.80;100.00
6413;BME280;3239;48.714;9.472;2022-12-26T15:30:18;98870.59;;;9.75;100.00
6413;BME280;3239;48.714;9.472;2022-12-26T15:33:01;98875.09;;;9.73;100.00
6413;BME280;3239;48.714;9.472;2022-12-26T15:35:45;98880.31;;;9.71;100.00
6413;BME280;3239;48.714;9.472;2022-12-26T15:38:26;98884.06;;;9.68;100.00
6413;BME280;3239;48.714;9.472;2022-12-26T15:41:15;98879.84;;;9.67;100.00
6413;BME280;3239;48.714;9.472;2022-12-26T15:43:55;98873.88;;;9.63;100.00
6413;BME280;3239;48.714;9.472;2022-12-26T15:46:42;98883.06;;;9.65;100.00
6413;BME280;3239;48.714;9.472;2022-12-26T15:55:56;98856.47;;;9.66;100.00
6413;BME280;3239;48.714;9.472;2022-12-26T16:00:54;98836.31;;;9.63;100.00
6413;BME280;3239;48.714;9.472;2022-12-26T16:09:35;98838.31;;;9.63;100.00
6413;BME280;3239;48.714;9.472;2022-12-26T16:14:47;98830.84;;;9.58;100.00
6413;BME280;3239;48.714;9.472;2022-12-26T16:19:41;98822.16;;;9.54;100.00
6413;BME280;3239;48.714;9.472;2022-12-26T16:22:15;98820.91;;;9.55;100.00
6413;BME280;3239;48.714;9.472;2022-12-26T16:25:00;98830.63;;;9.56;100.00
6413;BME280;3239;48.714;9.472;2022-12-26T16:27:28;98828.59;;;9.56;100.00
6413;BME280;3239;48.714;9.472;2022-12-26T16:30:01;98824.88;;;9.59;100.00
6413;BME280;3239;48.714;9.472;2022-12-26T16:32:36;98818.16;;;9.55;100.00
6413;BME280;3239;48.714;9.472;2022-12-26T16:35:05;98807.22;;;9.60;100.00
6413;BME280;3239;48.714;9.472;2022-12-26T16:37:31;98808.72;;;9.56;100.00
6413;BME280;3239;48.714;9.472;2022-12-26T16:41:02;98813.94;;;9.54;100.00
6413;BME280;3239;48.714;9.472;2022-12-26T16:43:20;98815.44;;;9.49;100.00
6413;BME280;3239;48.714;9.472;2022-12-26T16:45:54;98816.94;;;9.50;100.00
6413;BME280;3239;48.714;9.472;2022-12-26T16:48:24;98808.25;;;9.46;100.00
6413;BME280;3239;48.714;9.472;2022-12-26T16:51:29;98808.50;;;9.43;100.00
6413;BME280;3239;48.714;9.472;2022-12-26T16:53:52;98814.97;;;9.40;100.00
6413;BME280;3239;48.714;9.472;2022-12-26T16:56:29;98818.44;;;9.40;100.00
6413;BME280;3239;48.714;9.472;2022-12-26T17:01:39;98812.72;;;9.44;100.00
6413;BME280;3239;48.714;9.472;2022-12-26T17:04:19;98812.47;;;9.47;100.00
6413;BME280;3239;48.714;9.472;2022-12-26T17:07:14;98818.91;;;9.50;100.00
6413;BME280;3239;48.714;9.472;2022-12-26T17:09:45;98811.69;;;9.52;100.00
6413;BME280;3239;48.714;9.472;2022-12-26T17:12:28;98802.72;;;9.57;100.00
6413;BME280;3239;48.714;9.472;2022-12-26T17:14:56;98798.03;;;9.58;100.00
6413;BME280;3239;48.714;9.472;2022-12-26T17:19:51;98795.03;;;9.61;100.00
6413;BME280;3239;48.714;9.472;2022-12-26T17:22:33;98793.03;;;9.62;100.00
6413;BME280;3239;48.714;9.472;2022-12-26T17:30:40;98796.28;;;9.60;100.00
6413;BME280;3239;48.714;9.472;2022-12-26T17:33:19;98791.78;;;9.63;100.00
6413;BME280;3239;48.714;9.472;2022-12-26T17:36:02;98790.78;;;9.66;100.00
6413;BME280;3239;48.714;9.472;2022-12-26T17:38:29;98786.81;;;9.61;100.00